sensor_id;sensor_type;location;lat;lon;timestamp;P1;durP1;ratioP1;P2;durP2;ratioP2
9729;SDS011;4904;49.152;11.004;2022-07-06T00:01:54;2.72;;;1.95;;
9729;SDS011;4904;49.152;11.004;2022-07-06T00:04:21;2.20;;;2.00;;
9729;SDS011;4904;49.152;11.004;2022-07-06T00:06:48;2.33;;;2.05;;
9729;SDS011;4904;49.152;11.004;2022-07-06T00:09:15;4.90;;;2.15;;
9729;SDS011;4904;49.152;11.004;2022-07-06T00:11:42;3.20;;;1.95;;
9729;SDS011;4904;49.152;11.004;2022-07-06T00:14:10;2.53;;;2.17;;
9729;SDS011;4904;49.152;11.004;2022-07-06T00:16:39;2.33;;;2.10;;
9729;SDS011;4904;49.152;11.004;2022-07-06T00:19:06;4.05;;;2.08;;
9729;SDS011;4904;49.152;11.004;2022-07-06T00:21:33;4.10;;;2.08;;
9729;SDS011;4904;49.152;11.004;2022-07-06T00:24:00;2.45;;;2.20;;
9729;SDS011;4904;49.152;11.004;2022-07-06T00:26:27;4.40;;;2.20;;
9729;SDS011;4904;49.152;11.004;2022-07-06T00:28:54;2.50;;;2.30;;
9729;SDS011;4904;49.152;11.004;2022-07-06T00:31:21;2.78;;;2.28;;
9729;SDS011;4904;49.152;11.004;2022-07-06T00:33:49;4.40;;;1.98;;
9729;SDS011;4904;49.152;11.004;2022-07-06T00:36:16;2.30;;;2.10;;
9729;SDS011;4904;49.152;11.004;2022-07-06T00:38:43;2.72;;;2.53;;
9729;SDS011;4904;49.152;11.004;2022-07-06T00:41:11;2.63;;;2.30;;
9729;SDS011;4904;49.152;11.004;2022-07-06T00:43:48;3.95;;;2.30;;
9729;SDS011;4904;49.152;11.004;2022-07-06T00:46:16;2.50;;;2.30;;
9729;SDS011;4904;49.152;11.004;2022-07-06T00:48:43;2.67;;;2.20;;
9729;SDS011;4904;49.152;11.004;2022-07-06T00:51:11;2.42;;;2.17;;
9729;SDS011;4904;49.152;11.004;2022-07-06T00:53:39;1.92;;;1.80;;
9729;SDS011;4904;49.152;11.004;2022-07-06T00:56:06;2.55;;;2.17;;
9729;SDS011;4904;49.152;11.004;2022-07-06T00:58:34;2.20;;;2.00;;
9729;SDS011;4904;49.152;11.004;2022-07-06T01:01:01;3.67;;;2.00;;
9729;SDS011;4904;49.152;11.004;2022-07-06T01:03:28;9.73;;;2.65;;
9729;SDS011;4904;49.152;11.004;2022-07-06T01:05:55;4.53;;;2.20;;
9729;SDS011;4904;49.152;11.004;2022-07-06T01:08:23;2.92;;;1.92;;
9729;SDS011;4904;49.152;11.004;2022-07-06T01:10:51;2.28;;;1.80;;
9729;SDS011;4904;49.152;11.004;2022-07-06T01:13:18;2.35;;;2.03;;
9729;SDS011;4904;49.152;11.004;2022-07-06T01:15:45;6.18;;;2.47;;
9729;SDS011;4904;49.152;11.004;2022-07-06T01:18:12;2.78;;;2.10;;
9729;SDS011;4904;49.152;11.004;2022-07-06T01:20:40;2.28;;;2.08;;
9729;SDS011;4904;49.152;11.004;2022-07-06T01:23:07;2.55;;;2.13;;
9729;SDS011;4904;49.152;11.004;2022-07-06T01:25:34;2.88;;;2.40;;
9729;SDS011;4904;49.152;11.004;2022-07-06T01:28:01;4.32;;;2.63;;
9729;SDS011;4904;49.152;11.004;2022-07-06T01:30:29;4.93;;;2.22;;
9729;SDS011;4904;49.152;11.004;2022-07-06T01:32:56;2.38;;;2.17;;
9729;SDS011;4904;49.152;11.004;2022-07-06T01:35:23;2.90;;;2.22;;
9729;SDS011;4904;49.152;11.004;2022-07-06T01:37:53;2.83;;;2.40;;
9729;SDS011;4904;49.152;11.004;2022-07-06T01:40:20;2.60;;;2.40;;
9729;SDS011;4904;49.152;11.004;2022-07-06T01:42:47;4.25;;;2.35;;
9729;SDS011;4904;49.152;11.004;2022-07-06T01:45:14;2.45;;;2.10;;
9729;SDS011;4904;49.152;11.004;2022-07-06T01:47:41;2.42;;;2.15;;
9729;SDS011;4904;49.152;11.004;2022-07-06T01:50:08;2.88;;;2.40;;
9729;SDS011;4904;49.152;11.004;2022-07-06T01:52:35;3.47;;;2.28;;
9729;SDS011;4904;49.152;11.004;2022-07-06T01:55:05;2.63;;;2.35;;
9729;SDS011;4904;49.152;11.004;2022-07-06T01:57:32;3.00;;;2.40;;
9729;SDS011;4904;49.152;11.004;2022-07-06T01:59:59;2.60;;;2.40;;
9729;SDS011;4904;49.152;11.004;2022-07-06T02:02:26;3.47;;;2.50;;
9729;SDS011;4904;49.152;11.004;2022-07-06T02:04:53;3.42;;;2.25;;
9729;SDS011;4904;49.152;11.004;2022-07-06T02:07:20;3.15;;;2.30;;
9729;SDS011;4904;49.152;11.004;2022-07-06T02:09:46;3.05;;;2.40;;
9729;SDS011;4904;49.152;11.004;2022-07-06T02:12:15;3.63;;;2.42;;
9729;SDS011;4904;49.152;11.004;2022-07-06T02:14:42;3.88;;;2.53;;
9729;SDS011;4904;49.152;11.004;2022-07-06T02:17:08;5.70;;;2.22;;
9729;SDS011;4904;49.152;11.004;2022-07-06T02:19:35;2.50;;;2.20;;
9729;SDS011;4904;49.152;11.004;2022-07-06T02:22:02;2.60;;;2.30;;
9729;SDS011;4904;49.152;11.004;2022-07-06T02:24:29;6.72;;;2.70;;
9729;SDS011;4904;49.152;11.004;2022-07-06T02:26:56;3.17;;;2.33;;
9729;SDS011;4904;49.152;11.004;2022-07-06T02:29:24;2.45;;;2.25;;
9729;SDS011;4904;49.152;11.004;2022-07-06T02:31:51;2.70;;;2.50;;
9729;SDS011;4904;49.152;11.004;2022-07-06T02:34:18;3.70;;;2.40;;
9729;SDS011;4904;49.152;11.004;2022-07-06T02:36:45;2.55;;;2.30;;
9729;SDS011;4904;49.152;11.004;2022-07-06T02:39:12;2.58;;;2.38;;
9729;SDS011;4904;49.152;11.004;2022-07-06T02:41:39;2.70;;;2.42;;
9729;SDS011;4904;49.152;11.004;2022-07-06T02:44:06;2.55;;;2.20;;
9729;SDS011;4904;49.152;11.004;2022-07-06T02:46:34;2.40;;;2.20;;
9729;SDS011;4904;49.152;11.004;2022-07-06T02:49:01;2.63;;;2.38;;
9729;SDS011;4904;49.152;11.004;2022-07-06T02:51:28;3.65;;;2.65;;
9729;SDS011;4904;49.152;11.004;2022-07-06T02:53:54;2.42;;;2.22;;
9729;SDS011;4904;49.152;11.004;2022-07-06T02:56:21;4.50;;;2.30;;
9729;SDS011;4904;49.152;11.004;2022-07-06T02:58:48;3.42;;;2.40;;
9729;SDS011;4904;49.152;11.004;2022-07-06T03:01:15;4.25;;;2.45;;
9729;SDS011;4904;49.152;11.004;2022-07-06T03:03:43;2.88;;;2.67;;
9729;SDS011;4904;49.152;11.004;2022-07-06T03:06:10;3.92;;;2.60;;
9729;SDS011;4904;49.152;11.004;2022-07-06T03:08:37;2.53;;;2.33;;
9729;SDS011;4904;49.152;11.004;2022-07-06T03:11:04;2.78;;;2.28;;
9729;SDS011;4904;49.152;11.004;2022-07-06T03:13:31;2.50;;;2.30;;
9729;SDS011;4904;49.152;11.004;2022-07-06T03:15:58;3.80;;;2.70;;
9729;SDS011;4904;49.152;11.004;2022-07-06T03:18:25;5.70;;;2.80;;
9729;SDS011;4904;49.152;11.004;2022-07-06T03:20:53;2.75;;;2.53;;
9729;SDS011;4904;49.152;11.004;2022-07-06T03:23:20;3.42;;;2.90;;
9729;SDS011;4904;49.152;11.004;2022-07-06T03:25:47;3.35;;;2.60;;
9729;SDS011;4904;49.152;11.004;2022-07-06T03:28:13;3.67;;;2.60;;
9729;SDS011;4904;49.152;11.004;2022-07-06T03:30:40;3.83;;;2.58;;
9729;SDS011;4904;49.152;11.004;2022-07-06T03:33:07;3.47;;;2.95;;
9729;SDS011;4904;49.152;11.004;2022-07-06T03:35:34;6.57;;;2.75;;
9729;SDS011;4904;49.152;11.004;2022-07-06T03:38:03;5.05;;;2.35;;
9729;SDS011;4904;49.152;11.004;2022-07-06T03:40:29;4.00;;;2.60;;
9729;SDS011;4904;49.152;11.004;2022-07-06T03:42:56;2.53;;;2.33;;
9729;SDS011;4904;49.152;11.004;2022-07-06T03:45:23;2.67;;;2.47;;
9729;SDS011;4904;49.152;11.004;2022-07-06T03:47:50;4.97;;;2.65;;
9729;SDS011;4904;49.152;11.004;2022-07-06T03:50:17;2.83;;;2.63;;
9729;SDS011;4904;49.152;11.004;2022-07-06T03:52:44;5.55;;;2.30;;
9729;SDS011;4904;49.152;11.004;2022-07-06T03:55:13;3.85;;;2.15;;
9729;SDS011;4904;49.152;11.004;2022-07-06T03:57:40;4.30;;;2.80;;
9729;SDS011;4904;49.152;11.004;2022-07-06T04:00:07;2.97;;;2.70;;
9729;SDS011;4904;49.152;11.004;2022-07-06T04:02:35;5.65;;;2.92;;
9729;SDS011;4904;49.152;11.004;2022-07-06T04:05:02;4.28;;;2.80;;
9729;SDS011;4904;49.152;11.004;2022-07-06T04:07:29;2.90;;;2.60;;
9729;SDS011;4904;49.152;11.004;2022-07-06T04:09:56;3.22;;;2.65;;
9729;SDS011;4904;49.152;11.004;2022-07-06T04:12:24;2.70;;;2.50;;
9729;SDS011;4904;49.152;11.004;2022-07-06T04:14:51;3.33;;;2.50;;
9729;SDS011;4904;49.152;11.004;2022-07-06T04:17:18;3.22;;;2.92;;
9729;SDS011;4904;49.152;11.004;2022-07-06T04:20:05;2.95;;;2.38;;
9729;SDS011;4904;49.152;11.004;2022-07-06T04:22:33;3.70;;;2.55;;
9729;SDS011;4904;49.152;11.004;2022-07-06T04:25:03;4.28;;;2.95;;
9729;SDS011;4904;49.152;11.004;2022-07-06T04:27:32;4.47;;;2.60;;
9729;SDS011;4904;49.152;11.004;2022-07-06T04:29:58;5.55;;;3.20;;
9729;SDS011;4904;49.152;11.004;2022-07-06T04:32:25;3.60;;;2.90;;
9729;SDS011;4904;49.152;11.004;2022-07-06T04:34:52;4.40;;;3.00;;
9729;SDS011;4904;49.152;11.004;2022-07-06T04:37:19;3.90;;;3.10;;
9729;SDS011;4904;49.152;11.004;2022-07-06T04:39:46;3.28;;;2.97;;
9729;SDS011;4904;49.152;11.004;2022-07-06T04:42:13;3.85;;;3.22;;
9729;SDS011;4904;49.152;11.004;2022-07-06T04:44:41;2.97;;;2.72;;
9729;SDS011;4904;49.152;11.004;2022-07-06T04:47:08;6.28;;;2.75;;
9729;SDS011;4904;49.152;11.004;2022-07-06T04:49:35;4.38;;;3.55;;
9729;SDS011;4904;49.152;11.004;2022-07-06T04:52:02;3.70;;;3.28;;
9729;SDS011;4904;49.152;11.004;2022-07-06T04:54:29;5.35;;;3.53;;
9729;SDS011;4904;49.152;11.004;2022-07-06T04:56:56;6.85;;;3.63;;
9729;SDS011;4904;49.152;11.004;2022-07-06T04:59:23;9.32;;;3.70;;
9729;SDS011;4904;49.152;11.004;2022-07-06T05:01:52;7.68;;;3.40;;
9729;SDS011;4904;49.152;11.004;2022-07-06T05:04:19;6.07;;;3.50;;
9729;SDS011;4904;49.152;11.004;2022-07-06T05:06:45;8.02;;;4.10;;
9729;SDS011;4904;49.152;11.004;2022-07-06T05:09:12;6.30;;;3.72;;
9729;SDS011;4904;49.152;11.004;2022-07-06T05:11:40;4.05;;;3.10;;
9729;SDS011;4904;49.152;11.004;2022-07-06T05:14:07;7.75;;;3.72;;
9729;SDS011;4904;49.152;11.004;2022-07-06T05:16:35;5.70;;;4.00;;
9729;SDS011;4904;49.152;11.004;2022-07-06T05:19:03;6.05;;;4.05;;
9729;SDS011;4904;49.152;11.004;2022-07-06T05:21:30;12.50;;;4.25;;
9729;SDS011;4904;49.152;11.004;2022-07-06T05:23:57;8.52;;;4.00;;
9729;SDS011;4904;49.152;11.004;2022-07-06T05:26:24;8.98;;;4.07;;
9729;SDS011;4904;49.152;11.004;2022-07-06T05:28:51;19.20;;;4.43;;
9729;SDS011;4904;49.152;11.004;2022-07-06T05:31:18;20.50;;;5.20;;
9729;SDS011;4904;49.152;11.004;2022-07-06T05:33:45;49.88;;;7.57;;
9729;SDS011;4904;49.152;11.004;2022-07-06T05:36:14;41.13;;;7.63;;
9729;SDS011;4904;49.152;11.004;2022-07-06T05:38:42;25.67;;;8.00;;
9729;SDS011;4904;49.152;11.004;2022-07-06T05:41:09;15.63;;;7.60;;
9729;SDS011;4904;49.152;11.004;2022-07-06T05:43:36;3.47;;;2.55;;
9729;SDS011;4904;49.152;11.004;2022-07-06T05:46:02;3.88;;;2.47;;
9729;SDS011;4904;49.152;11.004;2022-07-06T05:48:30;3.97;;;2.40;;
9729;SDS011;4904;49.152;11.004;2022-07-06T05:51:15;2.95;;;2.20;;
9729;SDS011;4904;49.152;11.004;2022-07-06T05:53:42;4.28;;;2.10;;
9729;SDS011;4904;49.152;11.004;2022-07-06T05:56:09;4.28;;;2.63;;
9729;SDS011;4904;49.152;11.004;2022-07-06T05:58:36;5.68;;;2.60;;
9729;SDS011;4904;49.152;11.004;2022-07-06T06:01:03;3.38;;;2.33;;
9729;SDS011;4904;49.152;11.004;2022-07-06T06:03:32;2.95;;;2.17;;
9729;SDS011;4904;49.152;11.004;2022-07-06T06:05:59;5.72;;;2.20;;
9729;SDS011;4904;49.152;11.004;2022-07-06T06:08:27;3.80;;;2.28;;
9729;SDS011;4904;49.152;11.004;2022-07-06T06:10:54;3.30;;;2.08;;
9729;SDS011;4904;49.152;11.004;2022-07-06T06:13:21;2.30;;;2.10;;
9729;SDS011;4904;49.152;11.004;2022-07-06T06:15:48;2.85;;;2.20;;
9729;SDS011;4904;49.152;11.004;2022-07-06T06:18:15;2.10;;;2.00;;
9729;SDS011;4904;49.152;11.004;2022-07-06T06:20:44;3.45;;;2.15;;
9729;SDS011;4904;49.152;11.004;2022-07-06T06:23:11;3.17;;;1.80;;
9729;SDS011;4904;49.152;11.004;2022-07-06T06:25:40;3.10;;;2.15;;
9729;SDS011;4904;49.152;11.004;2022-07-06T06:28:08;2.30;;;2.10;;
9729;SDS011;4904;49.152;11.004;2022-07-06T06:30:36;5.53;;;2.20;;
9729;SDS011;4904;49.152;11.004;2022-07-06T06:33:05;2.38;;;2.17;;
9729;SDS011;4904;49.152;11.004;2022-07-06T06:35:32;5.72;;;2.53;;
9729;SDS011;4904;49.152;11.004;2022-07-06T06:37:59;4.97;;;2.10;;
9729;SDS011;4904;49.152;11.004;2022-07-06T06:40:26;3.28;;;2.15;;
9729;SDS011;4904;49.152;11.004;2022-07-06T06:42:54;2.70;;;2.35;;
9729;SDS011;4904;49.152;11.004;2022-07-06T06:45:21;3.47;;;2.65;;
9729;SDS011;4904;49.152;11.004;2022-07-06T06:47:48;4.60;;;2.58;;
9729;SDS011;4904;49.152;11.004;2022-07-06T06:50:15;4.60;;;2.45;;
9729;SDS011;4904;49.152;11.004;2022-07-06T06:52:42;4.50;;;2.33;;
9729;SDS011;4904;49.152;11.004;2022-07-06T06:55:09;5.38;;;2.30;;
9729;SDS011;4904;49.152;11.004;2022-07-06T06:57:36;3.10;;;2.13;;
9729;SDS011;4904;49.152;11.004;2022-07-06T07:00:05;6.75;;;2.30;;
9729;SDS011;4904;49.152;11.004;2022-07-06T07:02:33;5.18;;;2.50;;
9729;SDS011;4904;49.152;11.004;2022-07-06T07:05:00;5.22;;;2.30;;
9729;SDS011;4904;49.152;11.004;2022-07-06T07:07:27;2.45;;;2.08;;
9729;SDS011;4904;49.152;11.004;2022-07-06T07:09:54;2.95;;;2.00;;
9729;SDS011;4904;49.152;11.004;2022-07-06T07:12:21;4.05;;;2.25;;
9729;SDS011;4904;49.152;11.004;2022-07-06T07:14:48;2.70;;;2.50;;
9729;SDS011;4904;49.152;11.004;2022-07-06T07:17:16;2.50;;;2.03;;
9729;SDS011;4904;49.152;11.004;2022-07-06T07:19:43;2.42;;;2.20;;
9729;SDS011;4904;49.152;11.004;2022-07-06T07:22:10;3.58;;;2.17;;
9729;SDS011;4904;49.152;11.004;2022-07-06T07:24:38;3.50;;;2.05;;
9729;SDS011;4904;49.152;11.004;2022-07-06T07:27:05;2.53;;;2.00;;
9729;SDS011;4904;49.152;11.004;2022-07-06T07:29:32;3.83;;;2.22;;
9729;SDS011;4904;49.152;11.004;2022-07-06T07:31:59;2.35;;;1.67;;
9729;SDS011;4904;49.152;11.004;2022-07-06T07:34:28;4.07;;;2.05;;
9729;SDS011;4904;49.152;11.004;2022-07-06T07:36:55;2.20;;;2.00;;
9729;SDS011;4904;49.152;11.004;2022-07-06T07:39:21;2.03;;;1.83;;
9729;SDS011;4904;49.152;11.004;2022-07-06T07:41:48;4.70;;;2.00;;
9729;SDS011;4904;49.152;11.004;2022-07-06T07:44:16;2.20;;;2.00;;
9729;SDS011;4904;49.152;11.004;2022-07-06T07:46:43;2.35;;;2.15;;
9729;SDS011;4904;49.152;11.004;2022-07-06T07:49:10;1.98;;;1.88;;
9729;SDS011;4904;49.152;11.004;2022-07-06T07:51:38;3.35;;;2.10;;
9729;SDS011;4904;49.152;11.004;2022-07-06T07:54:06;3.75;;;1.95;;
9729;SDS011;4904;49.152;11.004;2022-07-06T07:56:33;2.22;;;2.03;;
9729;SDS011;4904;49.152;11.004;2022-07-06T07:59:00;4.20;;;2.20;;
9729;SDS011;4904;49.152;11.004;2022-07-06T08:01:27;2.33;;;1.80;;
9729;SDS011;4904;49.152;11.004;2022-07-06T08:03:54;1.80;;;1.70;;
9729;SDS011;4904;49.152;11.004;2022-07-06T08:06:22;2.22;;;2.00;;
9729;SDS011;4904;49.152;11.004;2022-07-06T08:08:51;5.35;;;2.20;;
9729;SDS011;4904;49.152;11.004;2022-07-06T08:11:18;4.15;;;1.67;;
9729;SDS011;4904;49.152;11.004;2022-07-06T08:13:45;2.30;;;2.03;;
9729;SDS011;4904;49.152;11.004;2022-07-06T08:16:12;2.97;;;2.20;;
9729;SDS011;4904;49.152;11.004;2022-07-06T08:18:39;3.40;;;2.00;;
9729;SDS011;4904;49.152;11.004;2022-07-06T08:21:07;3.05;;;2.35;;
9729;SDS011;4904;49.152;11.004;2022-07-06T08:23:34;4.60;;;2.00;;
9729;SDS011;4904;49.152;11.004;2022-07-06T08:26:02;4.65;;;1.98;;
9729;SDS011;4904;49.152;11.004;2022-07-06T08:28:29;4.22;;;2.20;;
9729;SDS011;4904;49.152;11.004;2022-07-06T08:30:56;3.22;;;2.10;;
9729;SDS011;4904;49.152;11.004;2022-07-06T08:33:23;2.10;;;1.90;;
9729;SDS011;4904;49.152;11.004;2022-07-06T08:35:50;2.00;;;1.80;;
9729;SDS011;4904;49.152;11.004;2022-07-06T08:38:17;5.03;;;2.08;;
9729;SDS011;4904;49.152;11.004;2022-07-06T08:40:45;3.38;;;1.90;;
9729;SDS011;4904;49.152;11.004;2022-07-06T08:43:16;3.72;;;2.20;;
9729;SDS011;4904;49.152;11.004;2022-07-06T08:45:43;4.65;;;2.00;;
9729;SDS011;4904;49.152;11.004;2022-07-06T08:48:12;2.35;;;2.20;;
9729;SDS011;4904;49.152;11.004;2022-07-06T08:50:39;3.00;;;1.98;;
9729;SDS011;4904;49.152;11.004;2022-07-06T08:53:06;4.22;;;2.00;;
9729;SDS011;4904;49.152;11.004;2022-07-06T08:55:33;3.85;;;1.60;;
9729;SDS011;4904;49.152;11.004;2022-07-06T08:58:01;3.95;;;2.00;;
9729;SDS011;4904;49.152;11.004;2022-07-06T09:00:31;3.30;;;1.80;;
9729;SDS011;4904;49.152;11.004;2022-07-06T09:02:59;2.97;;;2.08;;
9729;SDS011;4904;49.152;11.004;2022-07-06T09:05:27;2.25;;;2.05;;
9729;SDS011;4904;49.152;11.004;2022-07-06T09:07:55;4.32;;;2.15;;
9729;SDS011;4904;49.152;11.004;2022-07-06T09:10:23;2.65;;;2.00;;
9729;SDS011;4904;49.152;11.004;2022-07-06T09:12:51;2.40;;;2.10;;
9729;SDS011;4904;49.152;11.004;2022-07-06T09:15:18;3.15;;;2.10;;
9729;SDS011;4904;49.152;11.004;2022-07-06T09:17:46;2.42;;;2.22;;
9729;SDS011;4904;49.152;11.004;2022-07-06T09:20:13;2.38;;;2.17;;
9729;SDS011;4904;49.152;11.004;2022-07-06T09:22:40;2.83;;;2.03;;
9729;SDS011;4904;49.152;11.004;2022-07-06T09:25:08;2.28;;;1.85;;
9729;SDS011;4904;49.152;11.004;2022-07-06T09:27:37;2.95;;;1.95;;
9729;SDS011;4904;49.152;11.004;2022-07-06T09:30:05;3.80;;;2.10;;
9729;SDS011;4904;49.152;11.004;2022-07-06T09:32:38;3.08;;;2.05;;
9729;SDS011;4904;49.152;11.004;2022-07-06T09:35:07;5.55;;;2.10;;
9729;SDS011;4904;49.152;11.004;2022-07-06T09:37:45;3.38;;;1.92;;
9729;SDS011;4904;49.152;11.004;2022-07-06T09:40:15;3.65;;;1.92;;
9729;SDS011;4904;49.152;11.004;2022-07-06T09:42:44;1.60;;;1.50;;
9729;SDS011;4904;49.152;11.004;2022-07-06T09:45:11;8.52;;;2.38;;
9729;SDS011;4904;49.152;11.004;2022-07-06T09:47:38;4.38;;;1.92;;
9729;SDS011;4904;49.152;11.004;2022-07-06T09:50:14;3.78;;;1.88;;
9729;SDS011;4904;49.152;11.004;2022-07-06T09:52:52;3.70;;;1.90;;
9729;SDS011;4904;49.152;11.004;2022-07-06T09:55:21;2.42;;;1.83;;
9729;SDS011;4904;49.152;11.004;2022-07-06T09:57:54;2.33;;;1.80;;
9729;SDS011;4904;49.152;11.004;2022-07-06T10:00:21;2.65;;;1.90;;
9729;SDS011;4904;49.152;11.004;2022-07-06T10:02:48;2.05;;;1.80;;
9729;SDS011;4904;49.152;11.004;2022-07-06T10:05:17;3.55;;;2.30;;
9729;SDS011;4904;49.152;11.004;2022-07-06T10:07:45;2.00;;;1.90;;
9729;SDS011;4904;49.152;11.004;2022-07-06T10:10:15;4.68;;;2.03;;
9729;SDS011;4904;49.152;11.004;2022-07-06T10:12:43;3.10;;;2.10;;
9729;SDS011;4904;49.152;11.004;2022-07-06T10:15:14;2.03;;;1.65;;
9729;SDS011;4904;49.152;11.004;2022-07-06T10:17:43;2.30;;;2.10;;
9729;SDS011;4904;49.152;11.004;2022-07-06T10:20:12;4.88;;;1.92;;
9729;SDS011;4904;49.152;11.004;2022-07-06T10:22:42;3.10;;;1.90;;
9729;SDS011;4904;49.152;11.004;2022-07-06T10:25:09;4.65;;;1.70;;
9729;SDS011;4904;49.152;11.004;2022-07-06T10:27:37;2.33;;;1.92;;
9729;SDS011;4904;49.152;11.004;2022-07-06T10:30:05;1.95;;;1.65;;
9729;SDS011;4904;49.152;11.004;2022-07-06T10:32:33;4.05;;;1.73;;
9729;SDS011;4904;49.152;11.004;2022-07-06T10:35:02;3.80;;;1.80;;
9729;SDS011;4904;49.152;11.004;2022-07-06T10:37:29;3.55;;;2.10;;
9729;SDS011;4904;49.152;11.004;2022-07-06T10:39:59;2.03;;;1.73;;
9729;SDS011;4904;49.152;11.004;2022-07-06T10:42:44;4.30;;;1.90;;
9729;SDS011;4904;49.152;11.004;2022-07-06T10:45:14;3.22;;;1.80;;
9729;SDS011;4904;49.152;11.004;2022-07-06T10:47:46;3.60;;;1.83;;
9729;SDS011;4904;49.152;11.004;2022-07-06T10:50:13;2.63;;;1.65;;
9729;SDS011;4904;49.152;11.004;2022-07-06T10:52:47;3.80;;;1.75;;
9729;SDS011;4904;49.152;11.004;2022-07-06T10:55:28;2.33;;;2.10;;
9729;SDS011;4904;49.152;11.004;2022-07-06T10:57:57;1.77;;;1.67;;
9729;SDS011;4904;49.152;11.004;2022-07-06T11:00:25;1.85;;;1.50;;
9729;SDS011;4904;49.152;11.004;2022-07-06T11:02:52;2.55;;;1.77;;
9729;SDS011;4904;49.152;11.004;2022-07-06T11:08:08;2.35;;;1.77;;
9729;SDS011;4904;49.152;11.004;2022-07-06T11:13:25;2.58;;;1.88;;
9729;SDS011;4904;49.152;11.004;2022-07-06T11:16:00;2.28;;;1.70;;
9729;SDS011;4904;49.152;11.004;2022-07-06T11:18:28;3.28;;;1.90;;
9729;SDS011;4904;49.152;11.004;2022-07-06T11:21:17;2.17;;;1.92;;
9729;SDS011;4904;49.152;11.004;2022-07-06T11:23:46;5.47;;;1.95;;
9729;SDS011;4904;49.152;11.004;2022-07-06T11:26:16;3.33;;;1.83;;
9729;SDS011;4904;49.152;11.004;2022-07-06T11:28:44;4.90;;;2.00;;
9729;SDS011;4904;49.152;11.004;2022-07-06T11:31:13;2.13;;;1.67;;
9729;SDS011;4904;49.152;11.004;2022-07-06T11:33:41;3.05;;;1.85;;
9729;SDS011;4904;49.152;11.004;2022-07-06T11:36:12;3.22;;;2.05;;
9729;SDS011;4904;49.152;11.004;2022-07-06T11:38:40;2.45;;;1.95;;
9729;SDS011;4904;49.152;11.004;2022-07-06T11:41:07;1.90;;;1.75;;
9729;SDS011;4904;49.152;11.004;2022-07-06T11:43:37;4.15;;;1.83;;
9729;SDS011;4904;49.152;11.004;2022-07-06T11:46:17;4.00;;;2.10;;
9729;SDS011;4904;49.152;11.004;2022-07-06T11:48:52;4.43;;;2.03;;
9729;SDS011;4904;49.152;11.004;2022-07-06T11:51:21;4.55;;;2.08;;
9729;SDS011;4904;49.152;11.004;2022-07-06T11:53:51;2.55;;;1.70;;
9729;SDS011;4904;49.152;11.004;2022-07-06T11:56:19;2.20;;;1.98;;
9729;SDS011;4904;49.152;11.004;2022-07-06T11:58:52;3.15;;;2.00;;
9729;SDS011;4904;49.152;11.004;2022-07-06T12:01:21;2.97;;;2.00;;
9729;SDS011;4904;49.152;11.004;2022-07-06T12:03:49;2.80;;;1.70;;
9729;SDS011;4904;49.152;11.004;2022-07-06T12:06:17;2.85;;;1.58;;
9729;SDS011;4904;49.152;11.004;2022-07-06T12:08:47;5.88;;;2.00;;
9729;SDS011;4904;49.152;11.004;2022-07-06T12:11:19;3.88;;;2.10;;
9729;SDS011;4904;49.152;11.004;2022-07-06T12:13:47;2.45;;;2.00;;
9729;SDS011;4904;49.152;11.004;2022-07-06T12:16:16;4.95;;;2.20;;
9729;SDS011;4904;49.152;11.004;2022-07-06T12:18:43;3.28;;;1.98;;
9729;SDS011;4904;49.152;11.004;2022-07-06T12:21:13;4.18;;;1.98;;
9729;SDS011;4904;49.152;11.004;2022-07-06T12:23:43;2.35;;;1.98;;
9729;SDS011;4904;49.152;11.004;2022-07-06T12:26:11;4.13;;;2.17;;
9729;SDS011;4904;49.152;11.004;2022-07-06T12:28:39;3.78;;;1.77;;
9729;SDS011;4904;49.152;11.004;2022-07-06T12:31:06;3.55;;;1.67;;
9729;SDS011;4904;49.152;11.004;2022-07-06T12:33:34;3.50;;;1.90;;
9729;SDS011;4904;49.152;11.004;2022-07-06T12:36:12;3.17;;;1.75;;
9729;SDS011;4904;49.152;11.004;2022-07-06T12:38:46;2.70;;;1.88;;
9729;SDS011;4904;49.152;11.004;2022-07-06T12:41:26;2.15;;;1.63;;
9729;SDS011;4904;49.152;11.004;2022-07-06T12:44:04;2.33;;;2.00;;
9729;SDS011;4904;49.152;11.004;2022-07-06T12:46:33;2.75;;;1.75;;
9729;SDS011;4904;49.152;11.004;2022-07-06T12:49:04;3.42;;;1.92;;
9729;SDS011;4904;49.152;11.004;2022-07-06T12:51:48;2.63;;;1.88;;
9729;SDS011;4904;49.152;11.004;2022-07-06T12:54:19;5.63;;;2.10;;
9729;SDS011;4904;49.152;11.004;2022-07-06T12:56:59;2.47;;;1.65;;
9729;SDS011;4904;49.152;11.004;2022-07-06T12:59:32;2.67;;;1.85;;
9729;SDS011;4904;49.152;11.004;2022-07-06T13:02:01;1.92;;;1.70;;
9729;SDS011;4904;49.152;11.004;2022-07-06T13:04:30;1.75;;;1.60;;
9729;SDS011;4904;49.152;11.004;2022-07-06T13:06:58;3.35;;;1.63;;
9729;SDS011;4904;49.152;11.004;2022-07-06T13:09:26;2.97;;;1.70;;
9729;SDS011;4904;49.152;11.004;2022-07-06T13:11:53;3.13;;;1.95;;
9729;SDS011;4904;49.152;11.004;2022-07-06T13:14:20;2.90;;;1.70;;
9729;SDS011;4904;49.152;11.004;2022-07-06T13:16:47;1.55;;;1.45;;
9729;SDS011;4904;49.152;11.004;2022-07-06T13:19:14;4.20;;;2.05;;
9729;SDS011;4904;49.152;11.004;2022-07-06T13:21:43;1.90;;;1.80;;
9729;SDS011;4904;49.152;11.004;2022-07-06T13:24:10;2.05;;;1.60;;
9729;SDS011;4904;49.152;11.004;2022-07-06T13:26:37;2.67;;;1.70;;
9729;SDS011;4904;49.152;11.004;2022-07-06T13:29:04;2.40;;;1.70;;
9729;SDS011;4904;49.152;11.004;2022-07-06T13:31:32;2.45;;;1.80;;
9729;SDS011;4904;49.152;11.004;2022-07-06T13:33:59;4.32;;;1.67;;
9729;SDS011;4904;49.152;11.004;2022-07-06T13:36:26;2.30;;;1.92;;
9729;SDS011;4904;49.152;11.004;2022-07-06T13:38:54;3.55;;;1.63;;
9729;SDS011;4904;49.152;11.004;2022-07-06T13:41:21;3.38;;;1.80;;
9729;SDS011;4904;49.152;11.004;2022-07-06T13:43:48;1.90;;;1.80;;
9729;SDS011;4904;49.152;11.004;2022-07-06T13:46:15;2.15;;;1.58;;
9729;SDS011;4904;49.152;11.004;2022-07-06T13:48:43;1.50;;;1.40;;
9729;SDS011;4904;49.152;11.004;2022-07-06T13:51:10;4.28;;;2.05;;
9729;SDS011;4904;49.152;11.004;2022-07-06T13:53:37;2.22;;;1.90;;
9729;SDS011;4904;49.152;11.004;2022-07-06T13:56:06;1.80;;;1.70;;
9729;SDS011;4904;49.152;11.004;2022-07-06T13:58:33;2.33;;;2.00;;
9729;SDS011;4904;49.152;11.004;2022-07-06T14:01:00;2.45;;;1.70;;
9729;SDS011;4904;49.152;11.004;2022-07-06T14:03:27;4.75;;;1.90;;
9729;SDS011;4904;49.152;11.004;2022-07-06T14:05:56;1.98;;;1.58;;
9729;SDS011;4904;49.152;11.004;2022-07-06T14:08:23;5.22;;;1.85;;
9729;SDS011;4904;49.152;11.004;2022-07-06T14:10:51;2.85;;;1.75;;
9729;SDS011;4904;49.152;11.004;2022-07-06T14:13:19;4.38;;;3.97;;
9729;SDS011;4904;49.152;11.004;2022-07-06T14:15:47;5.68;;;4.55;;
9729;SDS011;4904;49.152;11.004;2022-07-06T14:18:14;2.88;;;1.80;;
9729;SDS011;4904;49.152;11.004;2022-07-06T14:20:42;1.60;;;1.50;;
9729;SDS011;4904;49.152;11.004;2022-07-06T14:23:09;9.77;;;1.95;;
9729;SDS011;4904;49.152;11.004;2022-07-06T14:25:36;2.15;;;1.80;;
9729;SDS011;4904;49.152;11.004;2022-07-06T14:28:03;4.60;;;1.90;;
9729;SDS011;4904;49.152;11.004;2022-07-06T14:30:32;2.63;;;1.70;;
9729;SDS011;4904;49.152;11.004;2022-07-06T14:33:01;3.15;;;1.75;;
9729;SDS011;4904;49.152;11.004;2022-07-06T14:35:32;2.38;;;1.70;;
9729;SDS011;4904;49.152;11.004;2022-07-06T14:37:59;1.90;;;1.80;;
9729;SDS011;4904;49.152;11.004;2022-07-06T14:40:26;2.25;;;1.70;;
9729;SDS011;4904;49.152;11.004;2022-07-06T14:42:53;3.40;;;1.75;;
9729;SDS011;4904;49.152;11.004;2022-07-06T14:45:20;2.47;;;1.95;;
9729;SDS011;4904;49.152;11.004;2022-07-06T14:47:48;2.40;;;1.92;;
9729;SDS011;4904;49.152;11.004;2022-07-06T14:50:15;2.80;;;1.60;;
9729;SDS011;4904;49.152;11.004;2022-07-06T14:52:42;3.20;;;1.88;;
9729;SDS011;4904;49.152;11.004;2022-07-06T14:55:09;1.77;;;1.55;;
9729;SDS011;4904;49.152;11.004;2022-07-06T14:57:37;2.00;;;1.90;;
9729;SDS011;4904;49.152;11.004;2022-07-06T15:00:04;1.92;;;1.80;;
9729;SDS011;4904;49.152;11.004;2022-07-06T15:02:32;3.88;;;1.98;;
9729;SDS011;4904;49.152;11.004;2022-07-06T15:05:00;2.65;;;1.85;;
9729;SDS011;4904;49.152;11.004;2022-07-06T15:07:27;2.30;;;1.80;;
9729;SDS011;4904;49.152;11.004;2022-07-06T15:09:54;3.13;;;1.80;;
9729;SDS011;4904;49.152;11.004;2022-07-06T15:12:21;5.10;;;1.65;;